sensor_id;sensor_type;location;lat;lon;timestamp;P1;durP1;ratioP1;P2;durP2;ratioP2
14975;SDS011;7584;60.468;25.126;2022-08-25T00:00:08;0.32;;;0.30;;
14975;SDS011;7584;60.468;25.126;2022-08-25T00:02:34;0.40;;;0.30;;
14975;SDS011;7584;60.468;25.126;2022-08-25T00:04:59;2.50;;;0.73;;
14975;SDS011;7584;60.468;25.126;2022-08-25T00:07:24;1.10;;;0.30;;
14975;SDS011;7584;60.468;25.126;2022-08-25T00:09:50;0.55;;;0.28;;
14975;SDS011;7584;60.468;25.126;2022-08-25T00:12:15;0.47;;;0.28;;
14975;SDS011;7584;60.468;25.126;2022-08-25T00:14:40;0.20;;;0.20;;
14975;SDS011;7584;60.468;25.126;2022-08-25T00:17:07;0.47;;;0.13;;
14975;SDS011;7584;60.468;25.126;2022-08-25T00:19:35;0.20;;;0.20;;
14975;SDS011;7584;60.468;25.126;2022-08-25T00:22:01;0.47;;;0.20;;
14975;SDS011;7584;60.468;25.126;2022-08-25T00:24:26;2.83;;;0.20;;
14975;SDS011;7584;60.468;25.126;2022-08-25T00:26:54;0.40;;;0.38;;
14975;SDS011;7584;60.468;25.126;2022-08-25T00:29:21;0.40;;;0.30;;
14975;SDS011;7584;60.468;25.126;2022-08-25T00:31:46;0.30;;;0.20;;
14975;SDS011;7584;60.468;25.126;2022-08-25T00:34:16;0.93;;;0.50;;
14975;SDS011;7584;60.468;25.126;2022-08-25T00:36:42;0.50;;;0.30;;
14975;SDS011;7584;60.468;25.126;2022-08-25T00:39:08;0.88;;;0.20;;
14975;SDS011;7584;60.468;25.126;2022-08-25T00:41:33;0.20;;;0.20;;
14975;SDS011;7584;60.468;25.126;2022-08-25T00:44:01;0.93;;;0.20;;
14975;SDS011;7584;60.468;25.126;2022-08-25T00:46:33;0.10;;;0.10;;
14975;SDS011;7584;60.468;25.126;2022-08-25T00:49:01;2.50;;;0.30;;
14975;SDS011;7584;60.468;25.126;2022-08-25T00:51:29;1.67;;;0.30;;
14975;SDS011;7584;60.468;25.126;2022-08-25T00:53:57;1.25;;;0.32;;
14975;SDS011;7584;60.468;25.126;2022-08-25T00:56:22;0.20;;;0.20;;
14975;SDS011;7584;60.468;25.126;2022-08-25T00:58:48;0.20;;;0.20;;
14975;SDS011;7584;60.468;25.126;2022-08-25T01:01:14;1.03;;;0.20;;
14975;SDS011;7584;60.468;25.126;2022-08-25T01:03:40;0.30;;;0.20;;
14975;SDS011;7584;60.468;25.126;2022-08-25T01:06:05;0.93;;;0.20;;
14975;SDS011;7584;60.468;25.126;2022-08-25T01:08:31;0.20;;;0.15;;
14975;SDS011;7584;60.468;25.126;2022-08-25T01:10:57;0.17;;;0.17;;
14975;SDS011;7584;60.468;25.126;2022-08-25T01:13:33;0.20;;;0.20;;
14975;SDS011;7584;60.468;25.126;2022-08-25T01:15:59;0.20;;;0.17;;
14975;SDS011;7584;60.468;25.126;2022-08-25T01:18:26;2.00;;;0.30;;
14975;SDS011;7584;60.468;25.126;2022-08-25T01:20:52;1.30;;;0.20;;
14975;SDS011;7584;60.468;25.126;2022-08-25T01:23:18;1.23;;;0.50;;
14975;SDS011;7584;60.468;25.126;2022-08-25T01:28:18;3.30;;;0.23;;
14975;SDS011;7584;60.468;25.126;2022-08-25T01:30:44;0.93;;;0.20;;
14975;SDS011;7584;60.468;25.126;2022-08-25T01:33:10;0.30;;;0.30;;
14975;SDS011;7584;60.468;25.126;2022-08-25T01:35:36;1.90;;;0.60;;
14975;SDS011;7584;60.468;25.126;2022-08-25T01:38:03;2.97;;;0.70;;
14975;SDS011;7584;60.468;25.126;2022-08-25T01:40:28;0.70;;;0.30;;
14975;SDS011;7584;60.468;25.126;2022-08-25T01:45:35;0.20;;;0.20;;
14975;SDS011;7584;60.468;25.126;2022-08-25T01:48:00;0.40;;;0.20;;
14975;SDS011;7584;60.468;25.126;2022-08-25T01:50:26;0.93;;;0.13;;
14975;SDS011;7584;60.468;25.126;2022-08-25T01:55:20;0.10;;;0.10;;
14975;SDS011;7584;60.468;25.126;2022-08-25T01:57:46;0.20;;;0.20;;
14975;SDS011;7584;60.468;25.126;2022-08-25T02:00:12;1.23;;;0.20;;
14975;SDS011;7584;60.468;25.126;2022-08-25T02:02:39;0.50;;;0.30;;
14975;SDS011;7584;60.468;25.126;2022-08-25T02:05:06;1.70;;;0.30;;
14975;SDS011;7584;60.468;25.126;2022-08-25T02:07:31;1.37;;;0.20;;
14975;SDS011;7584;60.468;25.126;2022-08-25T02:09:57;0.20;;;0.20;;
14975;SDS011;7584;60.468;25.126;2022-08-25T02:12:22;0.20;;;0.20;;
14975;SDS011;7584;60.468;25.126;2022-08-25T02:14:47;0.30;;;0.25;;
14975;SDS011;7584;60.468;25.126;2022-08-25T02:17:13;1.08;;;0.30;;
14975;SDS011;7584;60.468;25.126;2022-08-25T02:19:38;0.30;;;0.20;;
14975;SDS011;7584;60.468;25.126;2022-08-25T02:22:03;0.30;;;0.30;;
14975;SDS011;7584;60.468;25.126;2022-08-25T02:24:29;0.27;;;0.20;;
14975;SDS011;7584;60.468;25.126;2022-08-25T02:26:54;2.07;;;0.30;;
14975;SDS011;7584;60.468;25.126;2022-08-25T02:29:19;1.00;;;0.30;;
14975;SDS011;7584;60.468;25.126;2022-08-25T02:31:45;0.97;;;0.20;;
14975;SDS011;7584;60.468;25.126;2022-08-25T02:34:10;0.30;;;0.30;;
14975;SDS011;7584;60.468;25.126;2022-08-25T02:36:36;0.40;;;0.30;;
14975;SDS011;7584;60.468;25.126;2022-08-25T02:39:03;0.90;;;0.40;;
14975;SDS011;7584;60.468;25.126;2022-08-25T02:41:28;2.63;;;0.33;;
14975;SDS011;7584;60.468;25.126;2022-08-25T02:43:55;0.53;;;0.50;;
14975;SDS011;7584;60.468;25.126;2022-08-25T02:46:20;1.37;;;0.40;;
14975;SDS011;7584;60.468;25.126;2022-08-25T02:48:46;0.83;;;0.30;;
14975;SDS011;7584;60.468;25.126;2022-08-25T02:51:12;2.40;;;0.50;;
14975;SDS011;7584;60.468;25.126;2022-08-25T02:53:38;1.50;;;0.33;;
14975;SDS011;7584;60.468;25.126;2022-08-25T02:56:06;0.30;;;0.30;;
14975;SDS011;7584;60.468;25.126;2022-08-25T02:58:32;1.33;;;0.40;;
14975;SDS011;7584;60.468;25.126;2022-08-25T03:00:58;1.33;;;0.40;;
14975;SDS011;7584;60.468;25.126;2022-08-25T03:03:23;0.43;;;0.40;;
14975;SDS011;7584;60.468;25.126;2022-08-25T03:05:48;0.93;;;0.30;;
14975;SDS011;7584;60.468;25.126;2022-08-25T03:08:14;0.97;;;0.40;;
14975;SDS011;7584;60.468;25.126;2022-08-25T03:10:39;0.70;;;0.30;;
14975;SDS011;7584;60.468;25.126;2022-08-25T03:13:04;1.33;;;0.30;;
14975;SDS011;7584;60.468;25.126;2022-08-25T03:15:30;0.50;;;0.30;;
14975;SDS011;7584;60.468;25.126;2022-08-25T03:17:55;0.20;;;0.20;;
14975;SDS011;7584;60.468;25.126;2022-08-25T03:20:22;1.23;;;0.50;;
14975;SDS011;7584;60.468;25.126;2022-08-25T03:22:47;0.83;;;0.33;;
14975;SDS011;7584;60.468;25.126;2022-08-25T03:25:13;0.50;;;0.40;;
14975;SDS011;7584;60.468;25.126;2022-08-25T03:27:57;0.90;;;0.30;;
14975;SDS011;7584;60.468;25.126;2022-08-25T03:30:22;0.37;;;0.30;;
14975;SDS011;7584;60.468;25.126;2022-08-25T03:32:48;0.67;;;0.40;;
14975;SDS011;7584;60.468;25.126;2022-08-25T03:35:13;0.40;;;0.30;;
14975;SDS011;7584;60.468;25.126;2022-08-25T03:37:39;0.40;;;0.40;;
14975;SDS011;7584;60.468;25.126;2022-08-25T03:40:05;0.70;;;0.40;;
14975;SDS011;7584;60.468;25.126;2022-08-25T03:42:32;0.47;;;0.30;;
14975;SDS011;7584;60.468;25.126;2022-08-25T03:44:57;0.40;;;0.30;;
14975;SDS011;7584;60.468;25.126;2022-08-25T03:47:23;0.57;;;0.40;;
14975;SDS011;7584;60.468;25.126;2022-08-25T03:49:53;0.87;;;0.33;;
14975;SDS011;7584;60.468;25.126;2022-08-25T03:52:18;0.57;;;0.40;;
14975;SDS011;7584;60.468;25.126;2022-08-25T03:54:44;0.40;;;0.40;;
14975;SDS011;7584;60.468;25.126;2022-08-25T03:57:09;1.50;;;0.50;;
14975;SDS011;7584;60.468;25.126;2022-08-25T03:59:35;2.97;;;0.50;;
14975;SDS011;7584;60.468;25.126;2022-08-25T04:02:02;0.40;;;0.40;;
14975;SDS011;7584;60.468;25.126;2022-08-25T04:04:27;0.60;;;0.50;;
14975;SDS011;7584;60.468;25.126;2022-08-25T04:06:53;0.60;;;0.60;;
14975;SDS011;7584;60.468;25.126;2022-08-25T04:09:18;0.30;;;0.20;;
14975;SDS011;7584;60.468;25.126;2022-08-25T04:11:43;1.50;;;0.50;;
14975;SDS011;7584;60.468;25.126;2022-08-25T04:14:09;0.47;;;0.37;;
14975;SDS011;7584;60.468;25.126;2022-08-25T04:16:34;0.40;;;0.30;;
14975;SDS011;7584;60.468;25.126;2022-08-25T04:19:00;1.43;;;0.40;;
14975;SDS011;7584;60.468;25.126;2022-08-25T04:21:26;0.93;;;0.50;;
14975;SDS011;7584;60.468;25.126;2022-08-25T04:23:52;0.65;;;0.40;;
14975;SDS011;7584;60.468;25.126;2022-08-25T04:26:21;2.37;;;0.40;;
14975;SDS011;7584;60.468;25.126;2022-08-25T04:28:47;1.20;;;0.70;;
14975;SDS011;7584;60.468;25.126;2022-08-25T04:31:14;2.27;;;0.77;;
14975;SDS011;7584;60.468;25.126;2022-08-25T04:33:39;0.63;;;0.60;;
14975;SDS011;7584;60.468;25.126;2022-08-25T04:36:06;5.17;;;0.77;;
14975;SDS011;7584;60.468;25.126;2022-08-25T04:38:31;0.87;;;0.63;;
14975;SDS011;7584;60.468;25.126;2022-08-25T04:40:58;0.60;;;0.50;;
14975;SDS011;7584;60.468;25.126;2022-08-25T04:43:23;0.83;;;0.60;;
14975;SDS011;7584;60.468;25.126;2022-08-25T04:45:49;0.60;;;0.60;;
14975;SDS011;7584;60.468;25.126;2022-08-25T04:48:14;1.80;;;0.50;;
14975;SDS011;7584;60.468;25.126;2022-08-25T04:50:39;1.73;;;0.70;;
14975;SDS011;7584;60.468;25.126;2022-08-25T04:53:04;0.83;;;0.50;;
14975;SDS011;7584;60.468;25.126;2022-08-25T04:55:30;2.63;;;0.90;;
14975;SDS011;7584;60.468;25.126;2022-08-25T04:57:55;0.90;;;0.90;;
14975;SDS011;7584;60.468;25.126;2022-08-25T05:00:20;1.63;;;0.67;;
14975;SDS011;7584;60.468;25.126;2022-08-25T05:02:45;0.90;;;0.70;;
14975;SDS011;7584;60.468;25.126;2022-08-25T05:05:11;2.10;;;0.73;;
14975;SDS011;7584;60.468;25.126;2022-08-25T05:07:36;1.05;;;0.95;;
14975;SDS011;7584;60.468;25.126;2022-08-25T05:10:02;1.20;;;1.10;;
14975;SDS011;7584;60.468;25.126;2022-08-25T05:12:27;1.00;;;0.80;;
14975;SDS011;7584;60.468;25.126;2022-08-25T05:14:53;4.10;;;1.00;;
14975;SDS011;7584;60.468;25.126;2022-08-25T05:17:18;1.60;;;0.70;;
14975;SDS011;7584;60.468;25.126;2022-08-25T05:19:44;1.77;;;0.95;;
14975;SDS011;7584;60.468;25.126;2022-08-25T05:22:09;2.00;;;0.90;;
14975;SDS011;7584;60.468;25.126;2022-08-25T05:24:34;1.03;;;0.70;;
14975;SDS011;7584;60.468;25.126;2022-08-25T05:26:59;2.83;;;0.70;;
14975;SDS011;7584;60.468;25.126;2022-08-25T05:29:25;1.17;;;0.97;;
14975;SDS011;7584;60.468;25.126;2022-08-25T05:31:51;0.80;;;0.80;;
14975;SDS011;7584;60.468;25.126;2022-08-25T05:34:17;1.00;;;0.90;;
14975;SDS011;7584;60.468;25.126;2022-08-25T05:36:43;2.50;;;0.90;;
14975;SDS011;7584;60.468;25.126;2022-08-25T05:39:08;1.37;;;1.10;;
14975;SDS011;7584;60.468;25.126;2022-08-25T05:41:34;2.03;;;1.10;;
14975;SDS011;7584;60.468;25.126;2022-08-25T05:44:00;3.47;;;0.88;;
14975;SDS011;7584;60.468;25.126;2022-08-25T05:46:25;2.17;;;0.83;;
14975;SDS011;7584;60.468;25.126;2022-08-25T05:48:50;3.20;;;1.02;;
14975;SDS011;7584;60.468;25.126;2022-08-25T05:51:16;1.37;;;1.00;;
14975;SDS011;7584;60.468;25.126;2022-08-25T05:53:43;1.37;;;1.03;;
14975;SDS011;7584;60.468;25.126;2022-08-25T05:56:09;3.10;;;1.33;;
14975;SDS011;7584;60.468;25.126;2022-08-25T05:58:35;5.47;;;1.58;;
14975;SDS011;7584;60.468;25.126;2022-08-25T06:01:01;8.25;;;1.98;;
14975;SDS011;7584;60.468;25.126;2022-08-25T06:03:46;5.67;;;1.40;;
14975;SDS011;7584;60.468;25.126;2022-08-25T06:06:11;3.03;;;1.23;;
14975;SDS011;7584;60.468;25.126;2022-08-25T06:08:37;4.40;;;1.33;;
14975;SDS011;7584;60.468;25.126;2022-08-25T06:11:02;8.53;;;2.20;;
14975;SDS011;7584;60.468;25.126;2022-08-25T06:13:27;3.87;;;1.70;;
14975;SDS011;7584;60.468;25.126;2022-08-25T06:15:57;2.17;;;1.60;;
14975;SDS011;7584;60.468;25.126;2022-08-25T06:18:22;6.45;;;1.55;;
14975;SDS011;7584;60.468;25.126;2022-08-25T06:20:48;12.98;;;2.20;;
14975;SDS011;7584;60.468;25.126;2022-08-25T06:23:13;2.17;;;1.55;;
14975;SDS011;7584;60.468;25.126;2022-08-25T06:25:38;5.95;;;1.88;;
14975;SDS011;7584;60.468;25.126;2022-08-25T06:28:04;2.20;;;1.60;;
14975;SDS011;7584;60.468;25.126;2022-08-25T06:30:29;10.77;;;1.88;;
14975;SDS011;7584;60.468;25.126;2022-08-25T06:32:55;4.63;;;1.75;;
14975;SDS011;7584;60.468;25.126;2022-08-25T06:35:21;6.38;;;1.65;;
14975;SDS011;7584;60.468;25.126;2022-08-25T06:37:46;9.35;;;1.85;;
14975;SDS011;7584;60.468;25.126;2022-08-25T06:40:12;4.72;;;1.88;;
14975;SDS011;7584;60.468;25.126;2022-08-25T06:42:38;8.13;;;2.00;;
14975;SDS011;7584;60.468;25.126;2022-08-25T06:45:04;5.28;;;1.65;;
14975;SDS011;7584;60.468;25.126;2022-08-25T06:47:29;13.60;;;1.88;;
14975;SDS011;7584;60.468;25.126;2022-08-25T06:49:55;8.07;;;1.52;;
14975;SDS011;7584;60.468;25.126;2022-08-25T06:52:20;15.30;;;2.30;;
14975;SDS011;7584;60.468;25.126;2022-08-25T06:54:45;1.40;;;1.30;;
14975;SDS011;7584;60.468;25.126;2022-08-25T06:57:11;2.95;;;1.60;;
14975;SDS011;7584;60.468;25.126;2022-08-25T06:59:37;5.28;;;1.60;;
14975;SDS011;7584;60.468;25.126;2022-08-25T07:02:03;3.67;;;1.52;;
14975;SDS011;7584;60.468;25.126;2022-08-25T07:04:28;1.35;;;1.25;;
14975;SDS011;7584;60.468;25.126;2022-08-25T07:06:54;2.83;;;1.50;;
14975;SDS011;7584;60.468;25.126;2022-08-25T07:09:19;14.70;;;1.73;;
14975;SDS011;7584;60.468;25.126;2022-08-25T07:11:44;4.53;;;1.65;;
14975;SDS011;7584;60.468;25.126;2022-08-25T07:14:11;8.10;;;1.85;;
14975;SDS011;7584;60.468;25.126;2022-08-25T07:16:36;7.43;;;2.25;;
14975;SDS011;7584;60.468;25.126;2022-08-25T07:19:02;12.03;;;1.83;;
14975;SDS011;7584;60.468;25.126;2022-08-25T07:21:28;6.40;;;1.65;;
14975;SDS011;7584;60.468;25.126;2022-08-25T07:23:54;3.05;;;1.58;;
14975;SDS011;7584;60.468;25.126;2022-08-25T07:26:23;5.53;;;1.80;;
14975;SDS011;7584;60.468;25.126;2022-08-25T07:28:49;6.15;;;1.80;;
14975;SDS011;7584;60.468;25.126;2022-08-25T07:31:14;4.32;;;1.80;;
14975;SDS011;7584;60.468;25.126;2022-08-25T07:33:40;1.77;;;1.40;;
14975;SDS011;7584;60.468;25.126;2022-08-25T07:36:24;4.03;;;1.90;;
14975;SDS011;7584;60.468;25.126;2022-08-25T07:38:49;11.82;;;2.45;;
14975;SDS011;7584;60.468;25.126;2022-08-25T07:41:14;2.67;;;1.55;;
14975;SDS011;7584;60.468;25.126;2022-08-25T07:43:40;8.45;;;2.17;;
14975;SDS011;7584;60.468;25.126;2022-08-25T07:46:05;4.30;;;1.45;;
14975;SDS011;7584;60.468;25.126;2022-08-25T07:48:31;11.55;;;1.95;;
14975;SDS011;7584;60.468;25.126;2022-08-25T07:50:56;4.10;;;1.60;;
14975;SDS011;7584;60.468;25.126;2022-08-25T07:53:21;6.30;;;1.50;;
14975;SDS011;7584;60.468;25.126;2022-08-25T07:55:47;5.30;;;1.67;;
14975;SDS011;7584;60.468;25.126;2022-08-25T07:58:12;4.90;;;1.55;;
14975;SDS011;7584;60.468;25.126;2022-08-25T08:00:38;4.65;;;1.60;;
14975;SDS011;7584;60.468;25.126;2022-08-25T08:03:05;3.60;;;1.50;;
14975;SDS011;7584;60.468;25.126;2022-08-25T08:05:31;2.58;;;1.70;;
14975;SDS011;7584;60.468;25.126;2022-08-25T08:07:56;9.68;;;1.75;;
14975;SDS011;7584;60.468;25.126;2022-08-25T08:10:22;4.60;;;1.58;;
14975;SDS011;7584;60.468;25.126;2022-08-25T08:12:47;1.58;;;1.17;;
14975;SDS011;7584;60.468;25.126;2022-08-25T08:15:13;4.80;;;1.92;;
14975;SDS011;7584;60.468;25.126;2022-08-25T08:17:38;2.75;;;1.30;;
14975;SDS011;7584;60.468;25.126;2022-08-25T08:20:04;1.67;;;1.58;;
14975;SDS011;7584;60.468;25.126;2022-08-25T08:22:33;1.35;;;1.25;;
14975;SDS011;7584;60.468;25.126;2022-08-25T08:24:58;1.70;;;1.55;;
14975;SDS011;7584;60.468;25.126;2022-08-25T08:27:24;1.67;;;1.20;;
14975;SDS011;7584;60.468;25.126;2022-08-25T08:29:49;4.03;;;1.23;;
14975;SDS011;7584;60.468;25.126;2022-08-25T08:32:15;1.60;;;0.90;;
14975;SDS011;7584;60.468;25.126;2022-08-25T08:34:41;2.33;;;1.27;;
14975;SDS011;7584;60.468;25.126;2022-08-25T08:37:07;3.45;;;1.30;;
14975;SDS011;7584;60.468;25.126;2022-08-25T08:39:32;2.25;;;1.23;;
14975;SDS011;7584;60.468;25.126;2022-08-25T08:42:17;1.45;;;1.35;;
14975;SDS011;7584;60.468;25.126;2022-08-25T08:52:21;1.83;;;1.30;;
14975;SDS011;7584;60.468;25.126;2022-08-25T08:54:49;1.80;;;1.20;;
14975;SDS011;7584;60.468;25.126;2022-08-25T08:57:18;4.57;;;1.38;;
14975;SDS011;7584;60.468;25.126;2022-08-25T08:59:48;2.75;;;1.23;;
14975;SDS011;7584;60.468;25.126;2022-08-25T09:02:24;2.97;;;1.20;;
14975;SDS011;7584;60.468;25.126;2022-08-25T09:04:53;5.50;;;1.38;;
14975;SDS011;7584;60.468;25.126;2022-08-25T09:07:23;1.00;;;1.00;;
14975;SDS011;7584;60.468;25.126;2022-08-25T09:09:51;1.90;;;1.40;;
14975;SDS011;7584;60.468;25.126;2022-08-25T09:22:46;5.55;;;1.20;;
14975;SDS011;7584;60.468;25.126;2022-08-25T09:30:09;2.67;;;0.88;;
14975;SDS011;7584;60.468;25.126;2022-08-25T09:32:41;0.77;;;0.77;;
14975;SDS011;7584;60.468;25.126;2022-08-25T09:35:29;0.90;;;0.73;;
14975;SDS011;7584;60.468;25.126;2022-08-25T09:40:21;0.60;;;0.60;;
14975;SDS011;7584;60.468;25.126;2022-08-25T09:42:50;0.82;;;0.80;;
14975;SDS011;7584;60.468;25.126;2022-08-25T09:45:17;1.92;;;0.90;;
14975;SDS011;7584;60.468;25.126;2022-08-25T09:47:54;0.67;;;0.60;;
14975;SDS011;7584;60.468;25.126;2022-08-25T09:50:19;0.70;;;0.70;;
14975;SDS011;7584;60.468;25.126;2022-08-25T09:52:44;1.57;;;0.80;;
14975;SDS011;7584;60.468;25.126;2022-08-25T10:02:38;1.30;;;0.55;;
14975;SDS011;7584;60.468;25.126;2022-08-25T10:08:03;0.75;;;0.70;;
14975;SDS011;7584;60.468;25.126;2022-08-25T10:10:37;2.40;;;0.70;;
14975;SDS011;7584;60.468;25.126;2022-08-25T10:13:11;0.57;;;0.57;;
14975;SDS011;7584;60.468;25.126;2022-08-25T10:15:37;2.05;;;0.98;;
14975;SDS011;7584;60.468;25.126;2022-08-25T10:23:25;0.80;;;0.65;;
14975;SDS011;7584;60.468;25.126;2022-08-25T10:25:51;2.70;;;0.60;;
14975;SDS011;7584;60.468;25.126;2022-08-25T10:36:19;2.08;;;0.60;;
14975;SDS011;7584;60.468;25.126;2022-08-25T10:38:53;1.55;;;0.70;;
14975;SDS011;7584;60.468;25.126;2022-08-25T10:46:58;0.57;;;0.55;;
14975;SDS011;7584;60.468;25.126;2022-08-25T10:49:28;4.93;;;0.88;;
14975;SDS011;7584;60.468;25.126;2022-08-25T10:52:09;1.50;;;0.75;;
14975;SDS011;7584;60.468;25.126;2022-08-25T10:54:48;0.85;;;0.63;;
14975;SDS011;7584;60.468;25.126;2022-08-25T11:07:09;1.65;;;0.80;;
14975;SDS011;7584;60.468;25.126;2022-08-25T11:09:43;1.13;;;0.80;;
14975;SDS011;7584;60.468;25.126;2022-08-25T11:12:10;0.80;;;0.80;;
14975;SDS011;7584;60.468;25.126;2022-08-25T11:14:42;0.80;;;0.80;;
14975;SDS011;7584;60.468;25.126;2022-08-25T11:17:18;1.38;;;0.65;;
14975;SDS011;7584;60.468;25.126;2022-08-25T11:19:47;1.90;;;0.90;;
14975;SDS011;7584;60.468;25.126;2022-08-25T11:22:31;1.10;;;1.00;;
14975;SDS011;7584;60.468;25.126;2022-08-25T11:30:14;1.20;;;0.80;;
14975;SDS011;7584;60.468;25.126;2022-08-25T11:32:39;1.77;;;0.80;;
14975;SDS011;7584;60.468;25.126;2022-08-25T11:35:10;1.35;;;0.85;;
14975;SDS011;7584;60.468;25.126;2022-08-25T11:38:01;1.15;;;1.02;;
14975;SDS011;7584;60.468;25.126;2022-08-25T11:42:50;0.82;;;0.82;;
14975;SDS011;7584;60.468;25.126;2022-08-25T11:53:27;2.15;;;1.30;;
14975;SDS011;7584;60.468;25.126;2022-08-25T11:55:53;5.10;;;1.30;;
14975;SDS011;7584;60.468;25.126;2022-08-25T12:00:45;12.10;;;1.75;;
14975;SDS011;7584;60.468;25.126;2022-08-25T12:14:52;1.77;;;1.30;;
14975;SDS011;7584;60.468;25.126;2022-08-25T12:21:46;3.88;;;1.17;;
14975;SDS011;7584;60.468;25.126;2022-08-25T12:24:12;8.93;;;1.75;;
14975;SDS011;7584;60.468;25.126;2022-08-25T12:26:48;3.08;;;0.90;;
14975;SDS011;7584;60.468;25.126;2022-08-25T12:36:57;5.68;;;1.25;;
14975;SDS011;7584;60.468;25.126;2022-08-25T12:39:28;2.17;;;1.50;;
14975;SDS011;7584;60.468;25.126;2022-08-25T12:42:03;4.07;;;1.55;;
14975;SDS011;7584;60.468;25.126;2022-08-25T12:44:37;3.92;;;0.93;;
14975;SDS011;7584;60.468;25.126;2022-08-25T12:47:10;11.13;;;1.38;;
14975;SDS011;7584;60.468;25.126;2022-08-25T12:49:36;1.02;;;0.98;;
14975;SDS011;7584;60.468;25.126;2022-08-25T12:52:12;3.78;;;1.02;;
14975;SDS011;7584;60.468;25.126;2022-08-25T12:54:58;2.10;;;1.15;;
14975;SDS011;7584;60.468;25.126;2022-08-25T13:00:19;9.23;;;1.30;;
14975;SDS011;7584;60.468;25.126;2022-08-25T13:10:51;7.82;;;1.23;;
14975;SDS011;7584;60.468;25.126;2022-08-25T13:13:23;2.33;;;1.10;;
14975;SDS011;7584;60.468;25.126;2022-08-25T13:15:59;7.03;;;1.40;;
14975;SDS011;7584;60.468;25.126;2022-08-25T13:18:26;4.10;;;1.20;;
14975;SDS011;7584;60.468;25.126;2022-08-25T13:23:32;1.67;;;0.90;;
14975;SDS011;7584;60.468;25.126;2022-08-25T13:25:58;4.43;;;0.88;;
14975;SDS011;7584;60.468;25.126;2022-08-25T13:28:33;2.00;;;0.90;;
14975;SDS011;7584;60.468;25.126;2022-08-25T13:31:05;2.03;;;1.00;;
14975;SDS011;7584;60.468;25.126;2022-08-25T13:33:31;4.32;;;0.98;;
14975;SDS011;7584;60.468;25.126;2022-08-25T13:35:57;2.95;;;0.80;;
14975;SDS011;7584;60.468;25.126;2022-08-25T13:38:42;1.05;;;0.55;;
14975;SDS011;7584;60.468;25.126;2022-08-25T13:41:08;1.17;;;0.70;;
14975;SDS011;7584;60.468;25.126;2022-08-25T13:43:34;1.15;;;0.80;;
14975;SDS011;7584;60.468;25.126;2022-08-25T13:46:00;1.77;;;0.90;;
14975;SDS011;7584;60.468;25.126;2022-08-25T13:48:36;1.98;;;0.90;;
14975;SDS011;7584;60.468;25.126;2022-08-25T13:51:06;4.95;;;0.77;;
14975;SDS011;7584;60.468;25.126;2022-08-25T13:53:33;1.77;;;0.73;;
14975;SDS011;7584;60.468;25.126;2022-08-25T13:55:59;3.47;;;1.00;;
14975;SDS011;7584;60.468;25.126;2022-08-25T13:58:29;1.35;;;0.80;;
14975;SDS011;7584;60.468;25.126;2022-08-25T14:03:43;1.27;;;0.73;;
14975;SDS011;7584;60.468;25.126;2022-08-25T14:06:30;0.88;;;0.80;;
14975;SDS011;7584;60.468;25.126;2022-08-25T14:13:58;0.75;;;0.60;;
14975;SDS011;7584;60.468;25.126;2022-08-25T14:16:24;0.60;;;0.60;;
14975;SDS011;7584;60.468;25.126;2022-08-25T14:18:53;1.67;;;0.60;;
14975;SDS011;7584;60.468;25.126;2022-08-25T14:21:21;0.50;;;0.50;;
14975;SDS011;7584;60.468;25.126;2022-08-25T14:23:47;1.10;;;0.70;;
14975;SDS011;7584;60.468;25.126;2022-08-25T14:26:13;2.50;;;0.50;;
14975;SDS011;7584;60.468;25.126;2022-08-25T14:28:39;1.10;;;0.73;;
14975;SDS011;7584;60.468;25.126;2022-08-25T14:31:05;0.50;;;0.50;;
14975;SDS011;7584;60.468;25.126;2022-08-25T14:33:33;0.70;;;0.60;;
14975;SDS011;7584;60.468;25.126;2022-08-25T14:35:59;0.95;;;0.50;;
14975;SDS011;7584;60.468;25.126;2022-08-25T14:38:26;0.40;;;0.40;;
14975;SDS011;7584;60.468;25.126;2022-08-25T14:40:52;0.88;;;0.50;;
14975;SDS011;7584;60.468;25.126;2022-08-25T14:43:17;0.60;;;0.50;;
14975;SDS011;7584;60.468;25.126;2022-08-25T14:45:44;1.02;;;0.43;;
14975;SDS011;7584;60.468;25.126;2022-08-25T14:48:12;0.75;;;0.60;;
14975;SDS011;7584;60.468;25.126;2022-08-25T14:50:38;2.03;;;0.50;;
14975;SDS011;7584;60.468;25.126;2022-08-25T14:53:05;1.13;;;0.73;;
14975;SDS011;7584;60.468;25.126;2022-08-25T14:55:31;0.75;;;0.52;;
14975;SDS011;7584;60.468;25.126;2022-08-25T14:57:56;1.42;;;0.80;;
14975;SDS011;7584;60.468;25.126;2022-08-25T15:00:21;1.35;;;0.63;;
14975;SDS011;7584;60.468;25.126;2022-08-25T15:02:47;0.82;;;0.50;;
14975;SDS011;7584;60.468;25.126;2022-08-25T15:05:14;0.57;;;0.50;;
14975;SDS011;7584;60.468;25.126;2022-08-25T15:07:40;1.23;;;0.60;;
14975;SDS011;7584;60.468;25.126;2022-08-25T15:10:24;0.70;;;0.70;;
14975;SDS011;7584;60.468;25.126;2022-08-25T15:12:49;1.48;;;0.73;;
14975;SDS011;7584;60.468;25.126;2022-08-25T15:15:14;0.80;;;0.70;;
14975;SDS011;7584;60.468;25.126;2022-08-25T15:17:40;1.05;;;0.70;;
14975;SDS011;7584;60.468;25.126;2022-08-25T15:20:06;0.90;;;0.60;;
14975;SDS011;7584;60.468;25.126;2022-08-25T15:22:32;2.05;;;0.70;;
14975;SDS011;7584;60.468;25.126;2022-08-25T15:24:57;0.55;;;0.40;;
14975;SDS011;7584;60.468;25.126;2022-08-25T15:27:22;3.90;;;0.70;;
14975;SDS011;7584;60.468;25.126;2022-08-25T15:29:48;1.52;;;0.50;;
14975;SDS011;7584;60.468;25.126;2022-08-25T15:32:14;0.65;;;0.50;;
14975;SDS011;7584;60.468;25.126;2022-08-25T15:34:39;1.05;;;0.52;;
14975;SDS011;7584;60.468;25.126;2022-08-25T15:37:06;3.05;;;0.57;;
14975;SDS011;7584;60.468;25.126;2022-08-25T15:39:32;0.60;;;0.50;;
14975;SDS011;7584;60.468;25.126;2022-08-25T15:41:57;0.80;;;0.50;;
14975;SDS011;7584;60.468;25.126;2022-08-25T15:44:23;1.20;;;0.50;;
14975;SDS011;7584;60.468;25.126;2022-08-25T15:46:50;0.60;;;0.60;;
14975;SDS011;7584;60.468;25.126;2022-08-25T15:49:16;0.55;;;0.47;;
14975;SDS011;7584;60.468;25.126;2022-08-25T15:51:41;1.20;;;0.50;;
14975;SDS011;7584;60.468;25.126;2022-08-25T15:54:06;1.85;;;0.50;;
14975;SDS011;7584;60.468;25.126;2022-08-25T15:56:32;0.75;;;0.65;;
14975;SDS011;7584;60.468;25.126;2022-08-25T15:58:57;2.15;;;0.50;;
14975;SDS011;7584;60.468;25.126;2022-08-25T16:01:23;0.82;;;0.60;;
14975;SDS011;7584;60.468;25.126;2022-08-25T16:03:49;0.98;;;0.43;;
14975;SDS011;7584;60.468;25.126;2022-08-25T16:06:15;1.00;;;0.60;;
14975;SDS011;7584;60.468;25.126;2022-08-25T16:08:40;0.50;;;0.50;;
14975;SDS011;7584;60.468;25.126;2022-08-25T16:11:07;2.15;;;0.52;;
14975;SDS011;7584;60.468;25.126;2022-08-25T16:13:39;0.50;;;0.40;;
14975;SDS011;7584;60.468;25.126;2022-08-25T16:16:04;1.95;;;0.68;;
14975;SDS011;7584;60.468;25.126;2022-08-25T16:18:30;3.13;;;0.60;;
14975;SDS011;7584;60.468;25.126;2022-08-25T16:20:55;0.70;;;0.70;;
14975;SDS011;7584;60.468;25.126;2022-08-25T16:23:20;1.13;;;0.50;;
14975;SDS011;7584;60.468;25.126;2022-08-25T16:25:46;0.90;;;0.47;;
14975;SDS011;7584;60.468;25.126;2022-08-25T16:28:12;1.50;;;0.68;;
14975;SDS011;7584;60.468;25.126;2022-08-25T16:30:38;1.70;;;0.73;;
14975;SDS011;7584;60.468;25.126;2022-08-25T16:33:06;0.80;;;0.60;;
14975;SDS011;7584;60.468;25.126;2022-08-25T16:35:32;2.58;;;0.75;;
14975;SDS011;7584;60.468;25.126;2022-08-25T16:37:58;1.05;;;0.80;;
14975;SDS011;7584;60.468;25.126;2022-08-25T16:40:23;1.50;;;0.68;;
14975;SDS011;7584;60.468;25.126;2022-08-25T16:42:50;1.73;;;0.70;;
14975;SDS011;7584;60.468;25.126;2022-08-25T16:45:16;1.42;;;0.60;;
14975;SDS011;7584;60.468;25.126;2022-08-25T16:47:42;0.50;;;0.50;;
14975;SDS011;7584;60.468;25.126;2022-08-25T16:50:07;0.80;;;0.70;;
14975;SDS011;7584;60.468;25.126;2022-08-25T16:52:35;1.85;;;0.65;;
14975;SDS011;7584;60.468;25.126;2022-08-25T16:55:19;1.15;;;0.70;;
14975;SDS011;7584;60.468;25.126;2022-08-25T16:57:47;1.25;;;0.68;;
14975;SDS011;7584;60.468;25.126;2022-08-25T17:00:13;1.65;;;0.75;;
14975;SDS011;7584;60.468;25.126;2022-08-25T17:02:39;1.60;;;0.80;;